createdAt,value
2023-07-15T00:01:37.717Z,16.90
2023-07-15T00:04:13.093Z,16.88
2023-07-15T00:06:41.565Z,16.85
2023-07-15T00:09:09.619Z,16.83
2023-07-15T00:11:40.717Z,16.79
2023-07-15T00:14:19.339Z,16.74
2023-07-15T00:16:47.175Z,16.69
2023-07-15T00:19:15.055Z,16.64
2023-07-15T00:21:43.625Z,16.63
2023-07-15T00:24:11.326Z,16.61
2023-07-15T00:26:40.854Z,16.60
2023-07-15T00:29:09.615Z,16.59
2023-07-15T00:31:37.647Z,16.92
2023-07-15T00:34:06.366Z,17.36
2023-07-15T00:36:35.331Z,17.56
2023-07-15T00:39:05.872Z,17.63
2023-07-15T00:41:37.163Z,17.56
2023-07-15T00:44:06.594Z,17.47
2023-07-15T00:47:00.187Z,17.39
2023-07-15T00:49:33.130Z,17.27
2023-07-15T00:52:06.206Z,17.13
2023-07-15T00:54:36.702Z,17.03
2023-07-15T00:57:07.687Z,16.91
2023-07-15T00:59:41.660Z,16.81
2023-07-15T01:02:13.415Z,16.74
2023-07-15T01:04:41.156Z,16.67
2023-07-15T01:07:09.151Z,16.61
2023-07-15T01:09:38.195Z,16.54
2023-07-15T01:12:06.547Z,16.50
2023-07-15T01:14:34.394Z,16.46
2023-07-15T01:17:04.351Z,16.40
2023-07-15T01:19:32.736Z,16.36
2023-07-15T01:22:01.211Z,16.63
2023-07-15T01:24:29.415Z,17.04
2023-07-15T01:27:02.164Z,17.30
2023-07-15T01:29:30.049Z,17.26
2023-07-15T01:31:58.899Z,17.16
2023-07-15T01:34:26.485Z,17.07
2023-07-15T01:36:54.405Z,16.91
2023-07-15T01:39:23.362Z,16.76
2023-07-15T01:41:50.931Z,16.62
2023-07-15T01:44:19.044Z,16.53
2023-07-15T01:46:46.774Z,16.45
2023-07-15T01:49:15.715Z,16.35
2023-07-15T01:51:43.850Z,16.29
2023-07-15T01:54:11.386Z,16.20
2023-07-15T01:56:40.984Z,16.14
2023-07-15T01:59:12.189Z,16.39
2023-07-15T02:01:42.468Z,16.78
2023-07-15T02:04:10.330Z,17.01
2023-07-15T02:06:38.407Z,17.00
2023-07-15T02:09:09.490Z,16.93
2023-07-15T02:11:37.257Z,16.91
2023-07-15T02:14:05.563Z,16.88
2023-07-15T02:16:33.345Z,16.88
2023-07-15T02:19:01.132Z,16.95
2023-07-15T02:21:29.746Z,17.07
2023-07-15T02:23:57.499Z,17.19
2023-07-15T02:26:25.102Z,17.37
2023-07-15T02:28:52.978Z,17.56
2023-07-15T02:31:20.634Z,17.73
2023-07-15T02:33:50.099Z,17.92
2023-07-15T02:36:17.774Z,18.15
2023-07-15T02:38:45.585Z,18.39
2023-07-15T02:41:13.620Z,18.65
2023-07-15T02:43:41.488Z,18.99
2023-07-15T02:46:09.477Z,19.34
2023-07-15T02:48:37.075Z,19.59
2023-07-15T02:51:04.956Z,19.82
2023-07-15T02:53:32.882Z,20.11
2023-07-15T02:56:00.659Z,20.40
2023-07-15T02:58:28.640Z,20.70
2023-07-15T03:00:56.260Z,21.02
2023-07-15T03:03:23.866Z,21.40
2023-07-15T03:05:53.173Z,21.79
2023-07-15T03:08:21.711Z,22.17
2023-07-15T03:10:51.053Z,22.56
2023-07-15T03:13:19.396Z,23.00
2023-07-15T03:15:47.528Z,23.41
2023-07-15T03:18:15.225Z,23.81
2023-07-15T03:20:43.127Z,24.21
2023-07-15T03:23:10.750Z,24.63
2023-07-15T03:25:38.463Z,25.05
2023-07-15T03:28:06.387Z,25.47
2023-07-15T03:30:33.982Z,25.74
2023-07-15T03:33:01.787Z,25.88
2023-07-15T03:35:29.760Z,26.14
2023-07-15T03:37:57.461Z,26.35
2023-07-15T03:40:25.276Z,26.83
2023-07-15T03:42:55.234Z,27.22
2023-07-15T03:45:22.956Z,27.51
2023-07-15T03:47:50.575Z,27.76
2023-07-15T03:50:21.435Z,28.10
2023-07-15T03:52:49.042Z,28.34
2023-07-15T03:55:17.141Z,28.57
2023-07-15T03:57:44.929Z,28.85
2023-07-15T04:00:18.934Z,29.13
2023-07-15T04:02:48.000Z,29.38
2023-07-15T04:05:22.047Z,29.47
2023-07-15T04:07:50.207Z,29.83
2023-07-15T04:10:17.947Z,30.18
2023-07-15T04:12:46.019Z,30.52
2023-07-15T04:15:13.961Z,30.89
2023-07-15T04:17:41.533Z,31.19
2023-07-15T04:20:17.068Z,31.52
2023-07-15T04:22:45.284Z,31.91
2023-07-15T04:25:13.345Z,32.11
2023-07-15T04:27:41.176Z,32.42
2023-07-15T04:30:12.754Z,32.70
2023-07-15T04:32:40.931Z,32.97
2023-07-15T04:35:08.867Z,33.22
2023-07-15T04:37:40.423Z,33.48
2023-07-15T04:40:08.746Z,33.69
2023-07-15T04:42:36.520Z,33.96
2023-07-15T04:45:04.899Z,34.16
2023-07-15T04:47:34.522Z,34.50
2023-07-15T04:50:02.814Z,34.86
2023-07-15T04:52:30.738Z,35.19
2023-07-15T04:54:58.889Z,35.60
2023-07-15T04:57:26.648Z,35.84
2023-07-15T04:59:54.447Z,36.13
2023-07-15T05:02:22.714Z,36.48
2023-07-15T05:04:50.588Z,36.73
2023-07-15T05:07:20.719Z,37.03
2023-07-15T05:09:50.634Z,37.41
2023-07-15T05:12:18.669Z,37.59
2023-07-15T05:14:46.380Z,37.91
2023-07-15T05:17:14.117Z,38.34
2023-07-15T05:19:42.044Z,38.72
2023-07-15T05:22:09.941Z,39.15
2023-07-15T05:24:37.730Z,39.58
2023-07-15T05:27:06.153Z,39.92
2023-07-15T05:29:33.725Z,40.22
2023-07-15T05:32:01.455Z,40.42
2023-07-15T05:34:29.908Z,40.67
2023-07-15T05:36:59.001Z,41.02
2023-07-15T05:39:26.830Z,41.36
2023-07-15T05:41:54.571Z,41.56
2023-07-15T05:44:22.431Z,41.74
2023-07-15T05:46:49.997Z,41.82
2023-07-15T05:49:17.753Z,41.75
2023-07-15T05:51:45.608Z,41.73
2023-07-15T05:54:13.254Z,41.75
2023-07-15T05:56:41.116Z,41.77
2023-07-15T05:59:08.725Z,41.66
2023-07-15T06:01:36.458Z,41.68
2023-07-15T06:04:07.622Z,41.94
2023-07-15T06:06:36.429Z,42.09
2023-07-15T06:09:04.175Z,42.09
2023-07-15T06:11:31.960Z,42.30
2023-07-15T06:14:04.324Z,42.39
2023-07-15T06:16:33.210Z,42.36
2023-07-15T06:19:00.846Z,42.48
2023-07-15T06:21:28.450Z,42.85
2023-07-15T06:23:56.367Z,43.07
2023-07-15T06:26:23.939Z,43.16
2023-07-15T06:28:51.502Z,43.24
2023-07-15T06:31:19.660Z,43.20
2023-07-15T06:33:49.891Z,43.24
2023-07-15T06:36:17.615Z,43.50
2023-07-15T06:38:45.628Z,43.65
2023-07-15T06:41:13.413Z,43.61
2023-07-15T06:43:41.240Z,43.65
2023-07-15T06:46:09.614Z,43.79
2023-07-15T06:48:37.417Z,43.87
2023-07-15T06:51:05.025Z,43.76
2023-07-15T06:53:32.942Z,43.77
2023-07-15T06:56:18.107Z,43.90
2023-07-15T06:58:47.559Z,43.89
2023-07-15T07:01:15.821Z,43.92
2023-07-15T07:03:43.763Z,44.07
2023-07-15T07:06:11.722Z,44.04
2023-07-15T07:08:39.424Z,43.49
2023-07-15T07:11:07.258Z,42.56
2023-07-15T07:13:35.068Z,41.52
2023-07-15T07:16:02.669Z,40.33
2023-07-15T07:18:30.382Z,38.77
2023-07-15T07:20:59.901Z,37.32
2023-07-15T07:23:28.065Z,36.13
2023-07-15T07:25:55.716Z,35.15
2023-07-15T07:29:20.945Z,34.34
2023-07-15T07:31:49.068Z,33.26
2023-07-15T07:34:17.061Z,32.43
2023-07-15T07:36:45.574Z,31.92
2023-07-15T07:39:14.235Z,31.53
2023-07-15T07:41:42.573Z,31.09
2023-07-15T07:44:13.179Z,30.72
2023-07-15T07:46:40.932Z,30.43
2023-07-15T07:49:08.668Z,30.19
2023-07-15T07:51:36.432Z,29.83
2023-07-15T07:54:04.025Z,29.50
2023-07-15T07:56:31.896Z,29.26
2023-07-15T07:59:01.371Z,29.00
2023-07-15T08:01:33.006Z,28.73
2023-07-15T08:04:02.034Z,28.48
2023-07-15T08:06:31.201Z,28.12
2023-07-15T08:08:58.952Z,28.01
2023-07-15T08:11:26.808Z,27.92
2023-07-15T08:13:54.695Z,27.82
2023-07-15T08:16:33.023Z,27.71
2023-07-15T08:19:01.755Z,27.74
2023-07-15T08:21:29.473Z,27.69
2023-07-15T08:23:57.763Z,27.63
2023-07-15T08:26:26.223Z,27.42
2023-07-15T08:28:54.472Z,27.28
2023-07-15T08:31:22.589Z,27.22
2023-07-15T08:33:50.363Z,27.01
2023-07-15T08:36:18.169Z,26.81
2023-07-15T08:38:45.883Z,26.76
2023-07-15T08:41:16.145Z,26.79
2023-07-15T08:43:49.747Z,26.74
2023-07-15T08:46:26.659Z,26.70
2023-07-15T08:48:58.971Z,26.78
2023-07-15T08:51:36.331Z,26.83
2023-07-15T08:54:05.233Z,26.84
2023-07-15T08:56:35.777Z,26.72
2023-07-15T08:59:06.761Z,26.65
2023-07-15T09:01:36.727Z,26.56
2023-07-15T09:04:04.973Z,26.54
2023-07-15T09:06:33.813Z,26.59
2023-07-15T09:09:01.493Z,26.63
2023-07-15T09:11:40.814Z,26.62
2023-07-15T09:14:18.239Z,26.53
2023-07-15T09:16:46.260Z,26.24
2023-07-15T09:19:14.210Z,26.14
2023-07-15T09:21:53.239Z,26.22
2023-07-15T09:24:21.311Z,26.18
2023-07-15T09:26:53.066Z,26.11
2023-07-15T09:29:22.481Z,26.12
2023-07-15T09:31:51.307Z,26.09
2023-07-15T09:34:21.599Z,25.86
2023-07-15T09:36:50.266Z,25.57
2023-07-15T09:39:21.254Z,25.35
2023-07-15T09:42:08.704Z,25.34
2023-07-15T09:44:41.936Z,25.30
2023-07-15T09:47:09.983Z,25.31
2023-07-15T09:49:38.074Z,25.28
2023-07-15T09:52:07.250Z,25.28
2023-07-15T09:54:37.316Z,25.25
2023-07-15T09:57:12.107Z,25.17
2023-07-15T09:59:50.045Z,25.13
2023-07-15T10:02:29.983Z,25.00
2023-07-15T10:05:04.814Z,25.07
2023-07-15T10:07:33.848Z,25.36
2023-07-15T10:10:01.927Z,25.38
2023-07-15T10:12:31.070Z,25.28
2023-07-15T10:14:59.468Z,25.20
2023-07-15T10:17:35.416Z,25.19
2023-07-15T10:20:20.536Z,25.23
2023-07-15T10:22:50.637Z,25.33
2023-07-15T10:25:19.861Z,25.56
2023-07-15T10:27:47.645Z,25.78
2023-07-15T10:30:20.006Z,25.93
2023-07-15T10:33:23.751Z,25.95
2023-07-15T10:35:53.695Z,25.84
2023-07-15T10:38:29.255Z,25.81
2023-07-15T10:41:05.940Z,25.73
2023-07-15T10:43:37.852Z,25.68
2023-07-15T10:46:07.856Z,25.68
2023-07-15T10:48:36.679Z,25.63
2023-07-15T10:51:09.365Z,25.57
2023-07-15T10:53:37.917Z,25.55
2023-07-15T10:56:11.502Z,25.49
2023-07-15T10:58:41.765Z,25.48
2023-07-15T11:01:11.808Z,25.35
2023-07-15T11:03:43.141Z,25.26
2023-07-15T11:06:11.996Z,25.23
2023-07-15T11:08:41.438Z,25.37
2023-07-15T11:11:12.056Z,25.48
2023-07-15T11:13:42.200Z,25.55
2023-07-15T11:16:10.119Z,25.58
2023-07-15T11:18:38.430Z,25.49
2023-07-15T11:21:06.555Z,25.38
2023-07-15T11:23:34.909Z,25.40
2023-07-15T11:26:10.489Z,25.46
2023-07-15T11:28:49.895Z,25.45
2023-07-15T11:33:05.445Z,25.34
2023-07-15T11:35:34.726Z,25.37
2023-07-15T11:38:11.873Z,25.51
2023-07-15T11:41:00.860Z,25.65
2023-07-15T11:43:30.293Z,25.83
2023-07-15T11:45:59.386Z,25.81
2023-07-15T11:48:35.127Z,25.71
2023-07-15T11:51:08.060Z,25.59
2023-07-15T11:53:38.393Z,25.44
2023-07-15T11:56:09.772Z,25.30
2023-07-15T11:58:57.638Z,25.16
2023-07-15T12:01:27.057Z,25.01
2023-07-15T12:03:55.577Z,24.89
2023-07-15T12:06:26.237Z,24.85
2023-07-15T12:09:10.861Z,24.82
2023-07-15T12:11:39.834Z,24.94
2023-07-15T12:14:11.442Z,25.09
2023-07-15T12:16:40.404Z,25.22
2023-07-15T12:19:18.997Z,25.38
2023-07-15T12:21:46.852Z,25.55
2023-07-15T12:24:14.567Z,25.63
2023-07-15T12:26:42.264Z,25.77
2023-07-15T12:29:10.539Z,25.98
2023-07-15T12:31:38.326Z,26.15
2023-07-15T12:34:06.015Z,26.27
2023-07-15T12:36:33.694Z,26.37
2023-07-15T12:39:01.470Z,26.41
2023-07-15T12:41:29.277Z,26.38
2023-07-15T12:43:56.937Z,26.42
2023-07-15T12:46:24.693Z,26.51
2023-07-15T12:48:52.874Z,26.55
2023-07-15T12:51:20.805Z,26.55
2023-07-15T12:53:48.709Z,26.67
2023-07-15T12:56:16.762Z,26.65
2023-07-15T12:58:44.544Z,26.68
2023-07-15T13:01:12.314Z,26.68
2023-07-15T13:03:40.143Z,26.60
2023-07-15T13:06:07.868Z,26.42
2023-07-15T13:08:38.413Z,26.29
2023-07-15T13:11:07.336Z,26.24
2023-07-15T13:13:35.000Z,26.20
2023-07-15T13:16:03.076Z,26.23
2023-07-15T13:18:30.711Z,26.20
2023-07-15T13:20:58.353Z,26.13
2023-07-15T13:23:26.702Z,26.10
2023-07-15T13:25:56.454Z,26.00
2023-07-15T13:28:24.276Z,25.94
2023-07-15T13:30:52.174Z,25.93
2023-07-15T13:33:19.768Z,25.83
2023-07-15T13:35:48.615Z,25.75
2023-07-15T13:38:16.529Z,25.64
2023-07-15T13:40:44.120Z,25.56
2023-07-15T13:43:11.677Z,25.56
2023-07-15T13:45:39.707Z,25.49
2023-07-15T13:48:07.838Z,25.54
2023-07-15T13:50:35.454Z,25.67
2023-07-15T13:53:03.418Z,25.75
2023-07-15T13:55:31.014Z,25.79
2023-07-15T13:57:58.795Z,25.80
2023-07-15T14:00:26.826Z,25.79
2023-07-15T14:02:54.387Z,25.75
2023-07-15T14:05:22.102Z,25.70
2023-07-15T14:07:52.112Z,25.58
2023-07-15T14:10:19.720Z,25.45
2023-07-15T14:12:47.364Z,25.33
2023-07-15T14:15:15.360Z,25.28
2023-07-15T14:17:42.957Z,25.14
2023-07-15T14:20:11.008Z,25.19
2023-07-15T14:22:48.456Z,25.22
2023-07-15T14:25:19.434Z,25.15
2023-07-15T14:27:47.587Z,25.06
2023-07-15T14:30:15.575Z,25.10
2023-07-15T14:32:43.206Z,25.15
2023-07-15T14:35:11.194Z,25.25
2023-07-15T14:37:38.812Z,25.37
2023-07-15T14:40:07.813Z,25.49
2023-07-15T14:42:35.619Z,25.58
2023-07-15T14:45:03.344Z,25.58
2023-07-15T14:47:34.683Z,25.58
2023-07-15T14:50:02.885Z,25.56
2023-07-15T14:52:30.595Z,25.56
2023-07-15T14:54:58.289Z,25.58
2023-07-15T14:57:26.236Z,25.57
2023-07-15T14:59:53.799Z,25.52
2023-07-15T15:02:21.628Z,25.59
2023-07-15T15:04:49.754Z,25.64
2023-07-15T15:07:17.376Z,25.65
2023-07-15T15:09:45.021Z,25.65
2023-07-15T15:12:12.933Z,25.68
2023-07-15T15:14:40.519Z,25.72
2023-07-15T15:17:08.826Z,25.79
2023-07-15T15:19:36.797Z,25.84
2023-07-15T15:22:04.623Z,25.85
2023-07-15T15:24:32.240Z,25.83
2023-07-15T15:27:01.043Z,25.75
2023-07-15T15:29:28.702Z,25.59
2023-07-15T15:31:56.969Z,25.50
2023-07-15T15:34:25.226Z,25.39
2023-07-15T15:36:52.936Z,25.26
2023-07-15T15:39:20.499Z,25.15
2023-07-15T15:41:48.848Z,25.08
2023-07-15T15:44:16.508Z,25.01
2023-07-15T15:46:44.714Z,24.93
2023-07-15T15:49:12.652Z,24.87
2023-07-15T15:51:40.221Z,24.84
2023-07-15T15:54:13.686Z,24.81
2023-07-15T15:56:47.464Z,24.83
2023-07-15T15:59:52.771Z,24.88
2023-07-15T16:02:21.359Z,24.97
2023-07-15T16:05:28.248Z,25.05
2023-07-15T16:07:56.921Z,25.16
2023-07-15T16:10:25.069Z,25.21
2023-07-15T16:12:53.515Z,25.21
2023-07-15T16:15:24.284Z,25.18
2023-07-15T16:17:52.310Z,25.13
2023-07-15T16:20:20.755Z,25.08
2023-07-15T16:22:48.875Z,25.05
2023-07-15T16:25:16.936Z,25.00
2023-07-15T16:27:46.048Z,24.95
2023-07-15T16:30:13.885Z,24.86
2023-07-15T16:32:41.466Z,24.83
2023-07-15T16:35:09.732Z,24.79
2023-07-15T16:37:37.597Z,24.75
2023-07-15T16:40:05.882Z,24.71
2023-07-15T16:42:33.704Z,24.66
2023-07-15T16:45:01.322Z,24.61
2023-07-15T16:47:28.930Z,24.53
2023-07-15T16:49:56.771Z,24.45
2023-07-15T16:52:24.436Z,24.35
2023-07-15T16:54:52.127Z,24.26
2023-07-15T16:57:19.991Z,24.17
2023-07-15T16:59:47.732Z,24.08
2023-07-15T17:02:15.672Z,24.01
2023-07-15T17:04:43.521Z,23.98
2023-07-15T17:07:11.297Z,23.95
2023-07-15T17:09:38.888Z,23.93
2023-07-15T17:12:13.213Z,23.92
2023-07-15T17:14:41.144Z,23.89
2023-07-15T17:17:09.077Z,23.85
2023-07-15T17:19:36.820Z,23.83
2023-07-15T17:22:04.562Z,23.79
2023-07-15T17:24:32.182Z,23.74
2023-07-15T17:26:59.889Z,23.71
2023-07-15T17:29:27.698Z,23.66
2023-07-15T17:31:55.649Z,23.61
2023-07-15T17:34:23.841Z,23.54
2023-07-15T17:36:51.644Z,23.48
2023-07-15T17:39:19.434Z,23.39
2023-07-15T17:41:46.999Z,23.30
2023-07-15T17:44:14.791Z,23.22
2023-07-15T17:46:42.509Z,23.13
2023-07-15T17:49:10.096Z,23.05
2023-07-15T17:51:37.866Z,22.98
2023-07-15T17:54:05.509Z,22.90
2023-07-15T17:56:33.137Z,22.82
2023-07-15T17:59:00.857Z,22.73
2023-07-15T18:01:28.503Z,22.65
2023-07-15T18:03:56.106Z,22.56
2023-07-15T18:06:23.977Z,22.46
2023-07-15T18:08:51.704Z,22.38
2023-07-15T18:11:19.285Z,22.32
2023-07-15T18:13:47.087Z,22.26
2023-07-15T18:16:14.890Z,22.21
2023-07-15T18:18:42.517Z,22.16
2023-07-15T18:21:10.273Z,22.10
2023-07-15T18:23:41.204Z,22.05
2023-07-15T18:26:08.805Z,21.98
2023-07-15T18:28:37.400Z,21.91
2023-07-15T18:31:05.342Z,21.87
2023-07-15T18:33:33.275Z,21.84
2023-07-15T18:36:01.250Z,21.81
2023-07-15T18:38:29.009Z,21.79
2023-07-15T18:40:56.894Z,21.77
2023-07-15T18:43:24.823Z,21.73
2023-07-15T18:45:52.475Z,21.70
2023-07-15T18:48:20.126Z,21.64
2023-07-15T18:50:48.517Z,21.55
2023-07-15T18:53:16.270Z,21.43
2023-07-15T18:55:43.997Z,21.38
2023-07-15T18:58:11.741Z,21.38
2023-07-15T19:00:39.471Z,21.39
2023-07-15T19:03:07.209Z,21.40
2023-07-15T19:05:35.295Z,21.39
2023-07-15T19:08:03.058Z,21.37
2023-07-15T19:10:30.796Z,21.35
2023-07-15T19:12:58.430Z,21.32
2023-07-15T19:15:26.344Z,21.29
2023-07-15T19:17:53.966Z,21.26
2023-07-15T19:20:22.299Z,21.21
2023-07-15T19:22:50.173Z,21.17
2023-07-15T19:25:18.747Z,21.17
2023-07-15T19:27:46.569Z,21.16
2023-07-15T19:30:14.445Z,21.16
2023-07-15T19:32:42.049Z,21.12
2023-07-15T19:35:09.800Z,21.09
2023-07-15T19:37:37.569Z,21.05
2023-07-15T19:40:05.932Z,20.99
2023-07-15T19:42:33.949Z,20.93
2023-07-15T19:45:01.769Z,20.86
2023-07-15T19:47:29.326Z,20.80
2023-07-15T19:49:57.062Z,20.75
2023-07-15T19:52:24.847Z,20.70
2023-07-15T19:54:52.442Z,20.67
2023-07-15T19:57:20.159Z,20.63
2023-07-15T19:59:47.936Z,20.58
2023-07-15T20:02:15.661Z,20.53
2023-07-15T20:04:43.752Z,20.49
2023-07-15T20:07:11.376Z,20.42
2023-07-15T20:09:38.966Z,20.35
2023-07-15T20:12:07.430Z,20.28
2023-07-15T20:14:35.167Z,20.21
2023-07-15T20:17:02.789Z,20.17
2023-07-15T20:19:31.425Z,20.11
2023-07-15T20:21:59.522Z,20.07
2023-07-15T20:24:27.228Z,20.02
2023-07-15T20:26:55.288Z,19.96
2023-07-15T20:29:23.281Z,19.91
2023-07-15T20:31:50.915Z,19.89
2023-07-15T20:34:18.823Z,19.87
2023-07-15T20:36:46.451Z,19.90
2023-07-15T20:39:15.193Z,19.94
2023-07-15T20:41:43.454Z,20.01
2023-07-15T20:44:11.292Z,20.02
2023-07-15T20:46:39.195Z,20.03
2023-07-15T20:49:06.992Z,20.02
2023-07-15T20:51:34.816Z,20.01
2023-07-15T20:54:02.435Z,20.00
2023-07-15T20:56:30.283Z,20.00
2023-07-15T20:58:58.305Z,20.00
2023-07-15T21:01:26.015Z,19.98
2023-07-15T21:03:54.016Z,19.99
2023-07-15T21:06:21.912Z,19.99
2023-07-15T21:08:49.626Z,20.01
2023-07-15T21:11:19.153Z,20.01
2023-07-15T21:13:47.109Z,20.01
2023-07-15T21:16:17.841Z,19.98
2023-07-15T21:18:47.566Z,19.94
2023-07-15T21:21:15.818Z,19.90
2023-07-15T21:23:44.104Z,19.84
2023-07-15T21:26:12.404Z,19.77
2023-07-15T21:28:41.614Z,19.69
2023-07-15T21:31:09.658Z,19.61
2023-07-15T21:33:37.777Z,19.55
2023-07-15T21:36:05.691Z,19.51
2023-07-15T21:38:33.588Z,19.50
2023-07-15T21:41:01.259Z,19.48
2023-07-15T21:43:29.727Z,19.47
2023-07-15T21:45:57.856Z,19.47
2023-07-15T21:48:25.629Z,19.50
2023-07-15T21:50:53.558Z,19.54
2023-07-15T21:53:21.375Z,19.57
2023-07-15T21:55:48.999Z,19.61
2023-07-15T21:58:17.354Z,19.63
2023-07-15T22:00:44.999Z,19.60
2023-07-15T22:03:13.038Z,19.57
2023-07-15T22:05:47.197Z,19.55
2023-07-15T22:08:16.417Z,19.51
2023-07-15T22:10:44.107Z,19.50
2023-07-15T22:13:11.727Z,19.50
2023-07-15T22:15:39.607Z,19.48
2023-07-15T22:18:07.481Z,19.45
2023-07-15T22:20:35.123Z,19.41
2023-07-15T22:23:03.118Z,19.38
2023-07-15T22:25:31.150Z,19.34
2023-07-15T22:27:59.312Z,19.35
2023-07-15T22:30:27.534Z,19.34
2023-07-15T22:32:55.390Z,19.31
2023-07-15T22:35:23.278Z,19.29
2023-07-15T22:37:51.014Z,19.25
2023-07-15T22:40:18.648Z,19.22
2023-07-15T22:42:46.457Z,19.21
2023-07-15T22:45:14.763Z,19.19
2023-07-15T22:47:42.419Z,19.17
2023-07-15T22:50:10.293Z,19.17
2023-07-15T22:52:38.810Z,19.17
2023-07-15T22:55:09.548Z,19.15
2023-07-15T22:57:37.232Z,19.14
2023-07-15T23:00:06.110Z,19.13
2023-07-15T23:02:34.048Z,19.10
2023-07-15T23:05:03.155Z,19.08
2023-07-15T23:07:30.859Z,19.08
2023-07-15T23:09:58.442Z,19.07
2023-07-15T23:12:26.193Z,19.06
2023-07-15T23:14:53.762Z,19.05
2023-07-15T23:17:22.699Z,19.05
2023-07-15T23:19:50.513Z,19.05
2023-07-15T23:22:18.250Z,19.05
2023-07-15T23:24:45.915Z,19.04
2023-07-15T23:27:15.631Z,19.00
2023-07-15T23:29:43.274Z,18.94
2023-07-15T23:32:11.226Z,18.88
2023-07-15T23:34:39.275Z,18.82
2023-07-15T23:37:06.933Z,18.77
2023-07-15T23:39:34.619Z,18.71
2023-07-15T23:42:02.483Z,18.66
2023-07-15T23:44:30.133Z,18.61
2023-07-15T23:46:57.916Z,18.55
2023-07-15T23:49:25.716Z,18.50
2023-07-15T23:51:53.345Z,18.46
2023-07-15T23:54:21.480Z,18.43
2023-07-15T23:56:49.292Z,18.41
2023-07-15T23:59:17.558Z,18.38
